Meyersville, Texas
Current Conditions -  °F | °C
As of 12:51 AM on Saturday 01 Nov 2014 (Local Time) from KVCT Reporting Station
Clear Clear  
Wind Chill: 13°   Ceiling: Unl
Heat Index: 13°   Visibility: 10mi
Dew Point:   Wind: 8mph
Humidity: 64%   Direction: 20°NNE
Pressure: 30.29"   Gusts: NA
Location:  28.93°N, 97.31°W
Report Text: KVCT 010551Z AUTO 02007KT 10SM CLR 13/06 A3029 RMK AO2 SLP256 T01280061 10211 20128 402830128 51010
Loading
Personal Weather Stations






























Interactive Weather Map
Tropical Storm Tracking
New forecast layout! Learn more

10-Day Weather Forecast

Advertisements
Track Severe Weather on mobile